createdAt,value
2017-10-04T00:00:25.936Z,90.3
2017-10-04T00:05:07.800Z,90.4
2017-10-04T00:10:03.124Z,90.5
2017-10-04T00:15:08.188Z,90.6
2017-10-04T00:20:05.498Z,90.6
2017-10-04T00:25:03.468Z,90.6
2017-10-04T00:30:08.321Z,90.7
2017-10-04T00:35:07.813Z,90.8
2017-10-04T00:40:03.093Z,90.8
2017-10-04T00:45:03.137Z,90.9
2017-10-04T00:50:07.998Z,90.8
2017-10-04T00:55:10.943Z,90.9
2017-10-04T01:00:07.803Z,91.2
2017-10-04T01:05:07.807Z,91.2
2017-10-04T01:10:02.923Z,91.2
2017-10-04T01:15:03.030Z,91.2
2017-10-04T01:20:05.312Z,91.4
2017-10-04T01:25:05.894Z,91.5
2017-10-04T01:30:05.606Z,91.4
2017-10-04T01:35:02.668Z,91.4
2017-10-04T01:40:02.876Z,91.3
2017-10-04T01:45:02.981Z,91.7
2017-10-04T01:50:02.744Z,91.6
2017-10-04T01:55:08.336Z,91.5
2017-10-04T02:00:03.131Z,91.5
2017-10-04T02:05:02.676Z,91.4
2017-10-04T02:10:10.462Z,91.8
2017-10-04T02:15:07.995Z,91.8
2017-10-04T02:20:07.918Z,91.8
2017-10-04T02:25:08.330Z,91.9
2017-10-04T02:30:05.487Z,92
2017-10-04T02:35:07.639Z,91.9
2017-10-04T02:40:10.351Z,91.9
2017-10-04T02:45:10.496Z,91.9
2017-10-04T02:50:07.659Z,92.1
2017-10-04T02:55:05.674Z,92.1
2017-10-04T03:00:02.858Z,92.1
2017-10-04T03:05:05.935Z,92.1
2017-10-04T03:10:05.235Z,92
2017-10-04T03:15:05.266Z,92.2
2017-10-04T03:20:02.786Z,92.2
2017-10-04T03:25:03.063Z,92.4
2017-10-04T03:30:10.338Z,91.9
2017-10-04T03:35:05.800Z,91.8
2017-10-04T03:40:03.520Z,91.8
2017-10-04T03:45:03.514Z,91.9
2017-10-04T03:50:03.275Z,91.9
2017-10-04T03:55:07.872Z,91.5
2017-10-04T04:00:06.114Z,91.4
2017-10-04T04:05:33.434Z,91
2017-10-04T04:10:05.857Z,91.1
2017-10-04T04:15:03.354Z,91.2
2017-10-04T04:20:05.610Z,90.9
2017-10-04T04:25:05.098Z,90.9
2017-10-04T04:30:05.986Z,90.9
2017-10-04T04:35:20.632Z,90.3
2017-10-04T04:40:05.672Z,90
2017-10-04T04:45:10.623Z,90
2017-10-04T04:50:05.255Z,38.8
2017-10-04T04:55:03.272Z,90
2017-10-04T05:00:02.982Z,90
2017-10-04T05:05:06.008Z,89.8
2017-10-04T05:10:12.798Z,90
2017-10-04T05:15:20.482Z,89.4
2017-10-04T05:20:06.044Z,89.7
2017-10-04T05:25:03.018Z,89.5
2017-10-04T05:35:05.867Z,90
2017-10-04T05:40:02.630Z,89.9
2017-10-04T05:45:12.878Z,89
2017-10-04T05:50:03.505Z,89
2017-10-04T05:55:03.016Z,89.5
2017-10-04T06:00:02.828Z,88.7
2017-10-04T06:05:02.912Z,88.5
2017-10-04T06:10:07.679Z,88.4
2017-10-04T06:15:10.273Z,87.8
2017-10-04T06:20:08.515Z,87.8
2017-10-04T06:25:05.415Z,87.7
2017-10-04T06:30:20.355Z,87.7
2017-10-04T06:35:10.774Z,88.2
2017-10-04T06:40:03.458Z,88.3
2017-10-04T06:45:02.669Z,87.4
2017-10-04T06:50:08.452Z,86.8
2017-10-04T06:55:08.054Z,86.5
2017-10-04T07:00:05.291Z,85.4
2017-10-04T07:05:03.358Z,85.4
2017-10-04T07:10:10.240Z,86
2017-10-04T07:15:05.242Z,86.4
2017-10-04T07:20:06.028Z,85.4
2017-10-04T07:25:03.062Z,85.4
2017-10-04T07:30:17.989Z,85.8
2017-10-04T07:35:03.410Z,85.8
2017-10-04T07:40:07.662Z,84.6
2017-10-04T07:45:22.956Z,84.1
2017-10-04T07:50:08.533Z,84.4
2017-10-04T07:55:10.692Z,83.3
2017-10-04T08:00:02.928Z,83.3
2017-10-04T08:05:06.062Z,83.3
2017-10-04T08:10:02.782Z,83.3
2017-10-04T08:15:02.966Z,82.2
2017-10-04T08:20:02.738Z,83.3
2017-10-04T08:25:03.385Z,83
2017-10-04T08:30:03.196Z,81.7
2017-10-04T08:35:05.353Z,80.3
2017-10-04T08:40:05.641Z,79.6
2017-10-04T08:45:05.407Z,79.2
2017-10-04T08:50:05.582Z,79.2
2017-10-04T08:55:02.721Z,79.2
2017-10-04T09:00:03.532Z,80
2017-10-04T09:05:03.190Z,78.8
2017-10-04T09:10:08.515Z,77.9
2017-10-04T09:15:02.600Z,78.1
2017-10-04T09:20:05.905Z,77.8
2017-10-04T09:25:05.591Z,78.7
2017-10-04T09:30:02.856Z,78.7
2017-10-04T09:35:02.592Z,76.9
2017-10-04T09:40:05.466Z,77
2017-10-04T09:45:05.616Z,78
2017-10-04T09:50:05.556Z,79
2017-10-04T09:55:02.629Z,79
2017-10-04T10:00:08.624Z,78.6
2017-10-04T10:05:13.292Z,79.6
2017-10-04T10:10:07.628Z,78.4
2017-10-04T10:15:10.324Z,79.1
2017-10-04T10:20:08.611Z,77.9
2017-10-04T10:25:03.297Z,77.8
2017-10-04T10:30:08.177Z,77.4
2017-10-04T10:35:15.526Z,75.4
2017-10-04T10:40:10.920Z,74.6
2017-10-04T10:45:03.429Z,74.4
2017-10-04T10:50:05.744Z,75.4
2017-10-04T10:55:18.068Z,75.6
2017-10-04T11:00:20.492Z,73.2
2017-10-04T11:05:05.979Z,75
2017-10-04T11:10:05.279Z,73.8
2017-10-04T11:15:05.507Z,73.9
2017-10-04T11:20:07.919Z,71.8
2017-10-04T11:25:10.207Z,72.7
2017-10-04T11:35:03.186Z,73.8
2017-10-04T11:40:02.589Z,74.5
2017-10-04T11:45:17.994Z,72.9
2017-10-04T11:50:15.413Z,72.6
2017-10-04T11:55:05.583Z,72.7
2017-10-04T12:00:05.789Z,72.2
2017-10-04T12:05:02.961Z,72.1
2017-10-04T12:10:15.921Z,71.3
2017-10-04T12:15:06.072Z,71.4
2017-10-04T12:20:05.871Z,71.3
2017-10-04T12:25:05.646Z,71.7
2017-10-04T12:30:10.524Z,71.1
2017-10-04T12:35:07.790Z,69.6
2017-10-04T12:40:05.644Z,71
2017-10-04T12:45:21.010Z,68.9
2017-10-04T12:50:08.279Z,70.5
2017-10-04T12:55:02.952Z,70.4
2017-10-04T13:00:23.090Z,70.4
2017-10-04T13:05:03.531Z,70.4
2017-10-04T13:10:25.598Z,70
2017-10-04T13:15:18.275Z,70.9
2017-10-04T13:20:28.293Z,71
2017-10-04T13:25:05.228Z,71.8
2017-10-04T13:30:08.618Z,72.1
2017-10-04T13:35:18.471Z,69.8
2017-10-04T13:40:10.203Z,72.1
2017-10-04T13:45:02.841Z,72.1
2017-10-04T13:50:05.213Z,72.2
2017-10-04T13:55:13.534Z,71.1
2017-10-04T14:00:05.789Z,71.4
2017-10-04T14:05:05.501Z,71.3
2017-10-04T14:10:03.326Z,71.3
2017-10-04T14:15:02.581Z,71
2017-10-04T14:20:03.361Z,71.9
2017-10-04T14:25:02.721Z,71.8
2017-10-04T14:30:02.991Z,71.5
2017-10-04T14:35:02.642Z,72
2017-10-04T14:40:07.964Z,72.5
2017-10-04T14:45:03.117Z,72.5
2017-10-04T14:50:02.939Z,71.6
2017-10-04T14:55:02.615Z,72
2017-10-04T15:00:06.022Z,72.3
2017-10-04T15:05:03.141Z,72.3
2017-10-04T15:10:03.483Z,72.8
2017-10-04T15:15:07.820Z,72.5
2017-10-04T15:20:05.116Z,72.5
2017-10-04T15:25:13.446Z,72
2017-10-04T15:30:03.208Z,72
2017-10-04T15:35:18.075Z,72
2017-10-04T15:40:26.211Z,71.7
2017-10-04T15:45:05.953Z,72
2017-10-04T15:50:03.273Z,72
2017-10-04T15:55:05.585Z,72.8
2017-10-04T16:00:02.835Z,72.8
2017-10-04T16:05:08.660Z,73.5
2017-10-04T16:10:02.920Z,73.3
2017-10-04T16:15:10.705Z,74.4
2017-10-04T16:20:13.153Z,73.6
2017-10-04T16:25:07.754Z,73.2
2017-10-04T16:30:06.042Z,73.2
2017-10-04T16:35:05.811Z,73.2
2017-10-04T16:40:13.803Z,73.7
2017-10-04T16:45:12.890Z,74.7
2017-10-04T16:50:08.618Z,75.2
2017-10-04T16:55:08.346Z,75.4
2017-10-04T17:00:05.674Z,76.1
2017-10-04T17:05:15.595Z,77.2
2017-10-04T17:10:03.307Z,77.2
2017-10-04T17:15:23.743Z,76.7
2017-10-04T17:20:18.586Z,75.7
2017-10-04T17:25:08.155Z,76
2017-10-04T17:30:02.973Z,76
2017-10-04T17:35:02.712Z,76.1
2017-10-04T17:40:03.089Z,75.9
2017-10-04T17:45:03.229Z,75.4
2017-10-04T17:50:05.627Z,74.8
2017-10-04T17:55:02.793Z,74.7
2017-10-04T18:00:07.680Z,74.6
2017-10-04T18:05:05.891Z,74.3
2017-10-04T18:10:05.249Z,73.8
2017-10-04T18:15:02.933Z,73.8
2017-10-04T18:20:05.278Z,73.9
2017-10-04T18:25:11.106Z,74.5
2017-10-04T18:30:10.913Z,74.4
2017-10-04T18:35:05.610Z,73.9
2017-10-04T18:40:03.428Z,74
2017-10-04T18:45:05.114Z,73.8
2017-10-04T18:50:10.963Z,73.5
2017-10-04T18:55:03.072Z,73.5
2017-10-04T19:05:05.060Z,72.7
2017-10-04T19:10:05.404Z,73
2017-10-04T19:15:10.703Z,73
2017-10-04T19:20:10.648Z,73.1
2017-10-04T19:25:02.711Z,73.2
2017-10-04T19:30:07.641Z,73.1
2017-10-04T19:35:08.310Z,72.9
2017-10-04T19:40:07.635Z,73
2017-10-04T19:45:10.427Z,73
2017-10-04T19:50:02.646Z,73
2017-10-04T19:55:08.382Z,73.3
2017-10-04T20:00:08.305Z,72.9
2017-10-04T20:05:05.473Z,73.2
2017-10-04T20:10:18.434Z,73
2017-10-04T20:15:03.457Z,73.1
2017-10-04T20:20:05.823Z,73.2
2017-10-04T20:25:08.097Z,73.3
2017-10-04T20:30:12.999Z,73.5
2017-10-04T20:35:07.622Z,73.2
2017-10-04T20:40:12.997Z,73.1
2017-10-04T20:45:10.682Z,73.5
2017-10-04T20:50:02.942Z,73.5
2017-10-04T20:55:02.522Z,73.6
2017-10-04T21:00:08.467Z,73.6
2017-10-04T21:05:10.689Z,73.5
2017-10-04T21:10:03.457Z,73.5
2017-10-04T21:15:02.656Z,73.4
2017-10-04T21:20:05.954Z,73.5
2017-10-04T21:25:05.605Z,73.4
2017-10-04T21:30:02.901Z,73.4
2017-10-04T21:35:20.355Z,73.2
2017-10-04T21:40:05.428Z,73.6
2017-10-04T21:45:08.171Z,73.4
2017-10-04T21:50:02.911Z,73.4
2017-10-04T21:55:02.541Z,74
2017-10-04T22:00:16.022Z,73.8
2017-10-04T22:05:03.086Z,73.8
2017-10-04T22:10:03.360Z,74.4
2017-10-04T22:15:02.620Z,74.3
2017-10-04T22:20:16.046Z,74.6
2017-10-04T22:25:03.078Z,74.6
2017-10-04T22:30:02.831Z,68
2017-10-04T22:35:16.131Z,75.1
2017-10-04T22:40:12.986Z,74.7
2017-10-04T22:45:05.620Z,75
2017-10-04T22:50:05.434Z,74.6
2017-10-04T22:55:33.894Z,74.8
2017-10-04T23:00:10.985Z,75.1
2017-10-04T23:05:08.126Z,74.7
2017-10-04T23:10:05.911Z,75
2017-10-04T23:15:03.542Z,75
2017-10-04T23:20:20.995Z,74.9
2017-10-04T23:25:05.515Z,75
2017-10-04T23:30:02.767Z,74.9
2017-10-04T23:35:05.971Z,75.2
2017-10-04T23:40:02.733Z,75.2
2017-10-04T23:45:07.990Z,75.3
2017-10-04T23:50:02.802Z,75.4
2017-10-04T23:55:16.022Z,75.8
